Nearby METAR Reports

 

KSWO - Stillwater, Oklahoma, USA
Distance from station: S 17mi, 28km
Updated: Wed, 04-21-2021 2:53pm CDT
Clear
Clear
 Wind from NNW
Wind: NNW 13 mph , 20 km/h
Temperature: 61°F , 16°C
Dew Point: 25°F , -4°C
Humidity: 25%
Barometer: 30.28 inHg , 1025.4 hPa
Clouds: Clear
Visibility: 10 miles , 16 km
2021/04/21 19:53 KSWO 211953Z 33011KT 10SM CLR 16/M04 A3028 RMK AO2 SLP254 T01561044
KCFV - Coffeyville, Kansas, USA
Distance from station: ENE 93mi, 150km
Updated: Wed, 04-21-2021 2:52pm CDT
Partly cloudy
Partly cloudy
 Wind from NW
Wind: NW 10 mph , 17 km/h, Gust: 23 mph , 37 km/h
Temperature: 55°F , 13°C
Dew Point: 25°F , -4°C
Humidity: 31%
Barometer: 30.27 inHg , 1025.1 hPa
Clouds: Partly cloudy
Visibility: 10 miles , 16 km
Cloud details: Partly cloudy 7000 ft
2021/04/21 19:52 KCFV 211952Z AUTO 32009G20KT 10SM SCT070 13/M04 A3027 RMK AO2 PK WND 30026/1902 SLP253 T01281039
KIDP - Independence, Kansas, USA
Distance from station: NE 86mi, 138km
Updated: Wed, 04-21-2021 2:55pm CDT
Mostly cloudy
Mostly cloudy
 Wind from NNW
Wind: NNW 10 mph , 17 km/h, Gust: 22 mph , 35 km/h
Temperature: 54°F , 12°C
Dew Point: 27°F , -3°C
Humidity: 35%
Barometer: 30.28 inHg , 1025.4 hPa
Clouds: Mostly cloudy
Visibility: 10 miles , 16 km
Cloud details: Mostly cloudy 6500 ft
2021/04/21 19:55 KIDP 211955Z AUTO 33009G19KT 10SM BKN065 12/M03 A3028 RMK AO2 T01241028
 
KIAB - Mcconnell Afb, Kansas, USA
Distance from station: N 84mi, 135km
Updated: Wed, 04-21-2021 2:56pm CDT
Partly cloudy
Partly cloudy
 Wind from NNW
Wind: NNW 14 mph , 22 km/h, Gust: 21 mph , 33 km/h
Temperature: 50°F , 10°C
Wind Chill: 45°F , 7°C
Dew Point: 23°F , -5°C
Humidity: 35%
Barometer: 30.28 inHg , 1025.4 hPa
Clouds: Partly cloudy
Visibility: 10 miles , 16 km
Cloud details: Partly cloudy 5500 ft
2021/04/21 19:56 KIAB 211956Z AUTO 33012G18KT 10SM SCT055 10/M05 A3028 RMK AO2 SLP263 T01031053 $
KICT - Wichita, Kansas, USA
Distance from station: NNW 88mi, 142km
Updated: Wed, 04-21-2021 2:53pm CDT
Partly cloudy
Partly cloudy
 Wind from NNW
Wind: NNW 10 mph , 17 km/h
Temperature: 50°F , 10°C
Wind Chill: 46°F , 8°C
Dew Point: 27°F , -3°C
Humidity: 40%
Barometer: 30.28 inHg , 1025.4 hPa
Clouds: Partly cloudy
Visibility: 10 miles , 16 km
Cloud details: Partly cloudy 5500 ft
Partly cloudy 22000 ft
2021/04/21 19:53 KICT 211953Z 34009KT 10SM SCT055 SCT220 10/M03 A3028 RMK AO2 SLP258 T01001028
KAAO - Wichita/Jabara, Kansas, USA
Distance from station: N 93mi, 149km
Updated: Wed, 04-21-2021 2:54pm CDT
Few Clouds
Few Clouds
 Wind from N
Wind: N 8 mph , 13 km/h, Gust: 16 mph , 26 km/h
Temperature: 48°F , 9°C
Wind Chill: 44°F , 7°C
Dew Point: 21°F , -6°C
Humidity: 34%
Barometer: 30.28 inHg , 1025.4 hPa
Clouds: Few Clouds
Visibility: 10 miles , 16 km
Cloud details: Few Clouds 5500 ft
2021/04/21 19:54 KAAO 211954Z AUTO 35007G14KT 10SM FEW055 09/M06 A3028 RMK AO2 SLP263 T00941056
 
KWLD - Winfield/Arkansa, Kansas, USA
Distance from station: N 52mi, 84km
Updated: Wed, 04-21-2021 2:54pm CDT
Few Clouds
Few Clouds
 Wind from NNW
Wind: NNW 10 mph , 17 km/h
Temperature: 54°F , 12°C
Dew Point: 27°F , -3°C
Humidity: 35%
Barometer: 30.28 inHg , 1025.4 hPa
Clouds: Few Clouds
Visibility: 10 miles , 16 km
Cloud details: Few Clouds 6000 ft
2021/04/21 19:54 KWLD 211954Z AUTO 33009KT 10SM FEW060 12/M03 A3028 RMK AO2 SLP259 T01221033
KAVK - Alva, Oklahoma, USA
Distance from station: WNW 94mi, 152km
Updated: Wed, 04-21-2021 2:55pm CDT
Few Clouds
Few Clouds
 Wind from N
Wind: N 0 mph , 0 km/h, Gust: 18 mph , 30 km/h
Temperature: 54°F , 12°C
Dew Point: 23°F , -5°C
Humidity: 30%
Barometer: 30.28 inHg , 1025.4 hPa
Clouds: Few Clouds
Visibility: 10 miles , 16 km
Cloud details: Few Clouds 12000 ft
2021/04/21 19:55 KAVK 211955Z AUTO 00000G16KT 10SM FEW120 12/M05 A3028 RMK AO2
KBVO - Bartlesville, Oklahoma, USA
Distance from station: ENE 61mi, 98km
Updated: Wed, 04-21-2021 2:53pm CDT
Clear
Clear
 Wind from varies
Wind: varies 5 mph , 7 km/h
Temperature: 59°F , 15°C
Dew Point: 28°F , -2°C
Humidity: 31%
Barometer: 30.29 inHg , 1025.7 hPa
Clouds: Clear
Visibility: 10 miles , 16 km
2021/04/21 19:53 KBVO 211953Z AUTO VRB04KT 10SM CLR 15/M02 A3029 RMK AO2 SLP254 T01501022
 
KBKN - Blackwell, Oklahoma, USA
Distance from station: NW 29mi, 47km
Updated: Wed, 04-21-2021 2:55pm CDT
Clear
Clear
 Wind from WNW
Wind: WNW 15 mph , 24 km/h
Barometer: 30.28 inHg , 1025.4 hPa
Clouds: Clear
Visibility: 10 miles , 16 km
2021/04/21 19:55 KBKN 211955Z AUTO 29013KT 260V340 10SM CLR A3028 RMK AO2
KGCM - Claremore, Oklahoma, USA
Distance from station: E 86mi, 138km
Updated: Wed, 04-21-2021 2:55pm CDT
Partly cloudy
Partly cloudy
 Wind from N
Wind: N 8 mph , 13 km/h
Temperature: 55°F , 13°C
Dew Point: 23°F , -5°C
Humidity: 28%
Barometer: 30.28 inHg , 1025.4 hPa
Clouds: Partly cloudy
Visibility: 10 miles , 16 km
Cloud details: Partly cloudy 7000 ft
2021/04/21 19:55 KGCM 211955Z AUTO 36007KT 10SM SCT070 13/M05 A3028 RMK AO2
KCQB - Chandler, Oklahoma, USA
Distance from station: SSE 50mi, 80km
Updated: Wed, 04-21-2021 2:55pm CDT
Clear
Clear
 Wind from N
Wind: N 6 mph , 9 km/h, Gust: 18 mph , 30 km/h
Temperature: 57°F , 14°C
Dew Point: 23°F , -5°C
Humidity: 27%
Barometer: 30.28 inHg , 1025.4 hPa
Clouds: Clear
Visibility: 10 miles , 16 km
2021/04/21 19:55 KCQB 211955Z AUTO 36005G16KT 10SM CLR 14/M05 A3028 RMK AO2 T01421046
 
KCUH - Cushing, Oklahoma, USA
Distance from station: SSE 35mi, 57km
Updated: Wed, 04-21-2021 2:55pm CDT
Clear
Clear
 Wind from N
Wind: N 6 mph , 9 km/h, Gust: 16 mph , 26 km/h
Temperature: 57°F , 14°C
Dew Point: 25°F , -4°C
Humidity: 29%
Barometer: 30.27 inHg , 1025.1 hPa
Clouds: Clear
Visibility: 10 miles , 16 km
2021/04/21 19:55 KCUH 211955Z AUTO 35005G14KT 10SM CLR 14/M04 A3027 RMK AO2 T01431044
KRQO - El Reno Muni, Oklahoma, USA
Distance from station: SW 85mi, 137km
Updated: Wed, 04-21-2021 10:10am CDT
NOT Current
Clear
Clear
 Wind from WNW
Wind: WNW 5 mph , 7 km/h
Temperature: 46°F , 8°C
Wind Chill: 44°F , 7°C
Dew Point: 30°F , -1°C
Humidity: 53%
Barometer: 30.38 inHg , 1028.8 hPa
Clouds: Clear
Visibility: 10 miles , 16 km
2021/04/21 15:10 KRQO 211510Z AUTO 30004KT 10SM CLR 08/M01 A3038 RMK AO2 T00771011
KEND - Enid/Vance Afb, Oklahoma, USA
Distance from station: W 50mi, 81km
Updated: Wed, 04-21-2021 2:56pm CDT
Few Clouds
Few Clouds
 Wind from N
Wind: N 10 mph , 17 km/h, Gust: 18 mph , 30 km/h
Temperature: 57°F , 14°C
Dew Point: 21°F , -6°C
Humidity: 25%
Barometer: 30.27 inHg , 1025.1 hPa
Clouds: Few Clouds
Visibility: 10 miles , 16 km
Cloud details: Few Clouds 14000 ft
Few Clouds 20000 ft
2021/04/21 19:56 KEND 211956Z AUTO 36009G16KT 10SM FEW140 FEW200 14/M06 A3027 RMK AO2 SLP258 T01361061 $
 
KWDG - Enid/Woodring, Oklahoma, USA
Distance from station: W 42mi, 67km
Updated: Wed, 04-21-2021 2:55pm CDT
Partly cloudy
Partly cloudy
 Wind from NNW
Wind: NNW 15 mph , 24 km/h
Temperature: 57°F , 14°C
Dew Point: 25°F , -4°C
Humidity: 29%
Barometer: 30.27 inHg , 1025.1 hPa
Clouds: Partly cloudy
Visibility: 10 miles , 16 km
Cloud details: Few Clouds 7000 ft
Partly cloudy 20000 ft
2021/04/21 19:55 KWDG 211955Z 34013KT 10SM FEW070 SCT200 14/M04 A3027
KGOK - Guthrie, Oklahoma, USA
Distance from station: SSW 44mi, 71km
Updated: Wed, 04-21-2021 2:53pm CDT
Clear
Clear
 Wind from N
Wind: N 13 mph , 20 km/h, Gust: 17 mph , 28 km/h
Temperature: 57°F , 14°C
Dew Point: 23°F , -5°C
Humidity: 27%
Barometer: 30.28 inHg , 1025.4 hPa
Clouds: Clear
Visibility: 10 miles , 16 km
2021/04/21 19:53 KGOK 211953Z AUTO 01011G15KT 10SM CLR 14/M05 A3028 RMK AO2 SLP258 T01391050
KOUN - Norman/Westheime, Oklahoma, USA
Distance from station: SSW 84mi, 136km
Updated: Wed, 04-21-2021 1:47pm CDT
NOT Current
Clear
Clear
 Wind from NW
Wind: NW 10 mph , 17 km/h
Temperature: 57°F , 14°C
Dew Point: 25°F , -4°C
Humidity: 29%
Barometer: 30.29 inHg , 1025.7 hPa
Clouds: Clear
Visibility: 10 miles , 16 km
2021/04/21 18:47 KOUN 211847Z 32009KT 10SM CLR 14/M04 A3029
 
KOKC - Oklahoma City, Oklahoma, USA
Distance from station: SSW 78mi, 126km
Updated: Wed, 04-21-2021 2:52pm CDT
Partly cloudy
Partly cloudy
 Wind from varies
Wind: varies 6 mph , 9 km/h
Temperature: 57°F , 14°C
Dew Point: 19°F , -7°C
Humidity: 23%
Barometer: 30.27 inHg , 1025.1 hPa
Clouds: Partly cloudy
Visibility: 10 miles , 16 km
Cloud details: Few Clouds 6000 ft
Partly cloudy 25000 ft
2021/04/21 19:52 KOKC 211952Z VRB05KT 10SM FEW060 SCT250 14/M07 A3027 RMK AO2 SLP254 T01391067
KPWA - Okla City/Wiley, Oklahoma, USA
Distance from station: SSW 70mi, 113km
Updated: Wed, 04-21-2021 2:53pm CDT
Clear
Clear
 Wind from N
Wind: N 10 mph , 17 km/h, Gust: 16 mph , 26 km/h
Temperature: 59°F , 15°C
Dew Point: 25°F , -4°C
Humidity: 27%
Barometer: 30.27 inHg , 1025.1 hPa
Clouds: Clear
Visibility: 10 miles , 16 km
2021/04/21 19:53 KPWA 211953Z 36009G14KT 10SM CLR 15/M04 A3027 RMK AO2 SLP254 T01501044
KRCE - Okla City/Page, Oklahoma, USA
Distance from station: SW 78mi, 126km
Updated: Wed, 04-21-2021 2:55pm CDT
Clear
Clear
 Wind from NNE
Wind: NNE 10 mph , 17 km/h, Gust: 21 mph , 33 km/h
Temperature: 55°F , 13°C
Dew Point: 25°F , -4°C
Humidity: 31%
Barometer: 30.27 inHg , 1025.1 hPa
Clouds: Clear
Visibility: 10 miles , 16 km
2021/04/21 19:55 KRCE 211955Z AUTO 02009G18KT 10SM CLR 13/M04 A3027 RMK AO2
 
KOKM - Okmulgee, Oklahoma, USA
Distance from station: SE 79mi, 127km
Updated: Wed, 04-21-2021 2:55pm CDT
Clear
Clear
 Wind from N
Wind: N 13 mph , 20 km/h, Gust: 18 mph , 30 km/h
Temperature: 61°F , 16°C
Dew Point: 25°F , -4°C
Humidity: 25%
Barometer: 30.27 inHg , 1025.1 hPa
Clouds: Clear
Visibility: 10 miles , 16 km
2021/04/21 19:55 KOKM 211955Z AUTO 35011G16KT 10SM CLR 16/M04 A3027 RMK AO2 T01561039
KPNC - Ponca City, Oklahoma, USA
Distance from station: N 22mi, 36km
Updated: Wed, 04-21-2021 2:53pm CDT
Clear
Clear
 Wind from N
Wind: N 6 mph , 9 km/h
Temperature: 57°F , 14°C
Dew Point: 25°F , -4°C
Humidity: 29%
Barometer: 30.28 inHg , 1025.4 hPa
Clouds: Clear
Visibility: 10 miles , 16 km
2021/04/21 19:53 KPNC 211953Z AUTO 35005KT 10SM CLR 14/M04 A3028 RMK AO2 SLP254 T01391044
KSNL - Shawnee, Oklahoma, USA
Distance from station: S 74mi, 119km
Updated: Wed, 04-21-2021 2:55pm CDT
Clear
Clear
 Wind from N
Wind: N 10 mph , 17 km/h
Temperature: 57°F , 14°C
Dew Point: 14°F , -10°C
Humidity: 18%
Barometer: 30.27 inHg , 1025.1 hPa
Clouds: Clear
Visibility: 10 miles , 16 km
2021/04/21 19:55 KSNL 211955Z AUTO 35009KT 300V020 10SM CLR 14/M10 A3027 RMK AO2 T01421099